createdAt,value
2023-03-15T00:04:03.104Z,94.40
2023-03-15T00:09:15.564Z,83.95
2023-03-15T00:14:22.275Z,73.32
2023-03-15T00:19:28.535Z,73.30
2023-03-15T00:29:39.885Z,58.65
2023-03-15T00:34:50.204Z,67.93
2023-03-15T00:39:56.967Z,63.40
2023-03-15T00:45:02.365Z,69.13
2023-03-15T00:50:07.911Z,68.37
2023-03-15T00:55:16.414Z,63.23
2023-03-15T01:00:26.447Z,76.15
2023-03-15T01:05:32.611Z,72.53
2023-03-15T01:15:48.995Z,82.18
2023-03-15T01:20:54.810Z,80.50
2023-03-15T01:31:11.694Z,99.13
2023-03-15T01:36:18.051Z,96.18
2023-03-15T01:41:26.060Z,103.15
2023-03-15T01:46:36.889Z,91.65
2023-03-15T01:51:59.713Z,111.32
2023-03-15T01:57:20.745Z,95.75
2023-03-15T02:02:36.041Z,116.17
2023-03-15T02:07:53.424Z,105.15
2023-03-15T02:13:01.874Z,103.10
2023-03-15T02:18:10.454Z,97.90
2023-03-15T02:23:25.917Z,101.05
2023-03-15T02:28:32.272Z,97.13
2023-03-15T02:33:45.598Z,105.10
2023-03-15T02:38:53.587Z,100.78
2023-03-15T02:44:07.404Z,111.65
2023-03-15T02:49:15.021Z,110.28
2023-03-15T02:54:20.855Z,113.80
2023-03-15T02:59:26.010Z,126.73
2023-03-15T03:04:31.536Z,106.07
2023-03-15T03:09:37.183Z,99.47
2023-03-15T03:14:44.590Z,113.73
2023-03-15T03:19:54.446Z,129.88
2023-03-15T03:25:09.248Z,165.23
2023-03-15T03:30:16.704Z,106.78
2023-03-15T03:35:27.946Z,137.20
2023-03-15T03:45:40.499Z,123.80
2023-03-15T03:50:49.959Z,135.93
2023-03-15T03:55:58.922Z,88.40
2023-03-15T04:01:05.388Z,119.45
2023-03-15T04:06:12.880Z,132.90
2023-03-15T04:11:22.202Z,123.88
2023-03-15T04:16:33.495Z,114.88
2023-03-15T04:21:48.460Z,113.47
2023-03-15T04:27:02.899Z,114.35
2023-03-15T04:32:19.877Z,78.38
2023-03-15T04:37:35.945Z,120.05
2023-03-15T04:43:07.153Z,64.20
2023-03-15T04:48:38.923Z,113.22
2023-03-15T04:54:03.717Z,109.15
2023-03-15T04:59:22.137Z,124.68
2023-03-15T05:04:27.336Z,112.90
2023-03-15T05:09:52.427Z,120.78
2023-03-15T05:15:19.034Z,132.43
2023-03-15T05:21:03.518Z,148.70
2023-03-15T05:26:48.374Z,144.18
2023-03-15T05:31:57.000Z,127.07
2023-03-15T05:37:26.248Z,137.15
2023-03-15T05:42:55.322Z,138.73
2023-03-15T05:48:13.966Z,123.05
2023-03-15T05:53:44.127Z,130.38
2023-03-15T05:59:08.824Z,138.57
2023-03-15T06:04:24.975Z,130.48
2023-03-15T06:09:33.830Z,128.00
2023-03-15T06:14:41.167Z,138.80
2023-03-15T06:19:47.192Z,135.98
2023-03-15T06:24:53.495Z,143.05
2023-03-15T06:30:02.217Z,143.02
2023-03-15T06:35:09.954Z,123.82
2023-03-15T06:40:16.557Z,122.97
2023-03-15T06:45:25.030Z,124.30
2023-03-15T06:50:46.084Z,124.00
2023-03-15T06:55:53.616Z,138.13
2023-03-15T07:00:59.555Z,125.32
2023-03-15T07:06:05.441Z,119.25
2023-03-15T07:11:11.181Z,122.30
2023-03-15T07:16:17.122Z,121.70
2023-03-15T07:21:22.958Z,125.32
2023-03-15T07:26:31.882Z,118.67
2023-03-15T07:31:37.502Z,118.80
2023-03-15T07:41:48.447Z,119.95
2023-03-15T07:47:01.237Z,109.72
2023-03-15T07:52:07.005Z,121.30
2023-03-15T07:57:12.950Z,119.75
2023-03-15T08:02:18.462Z,119.25
2023-03-15T08:07:23.604Z,111.27
2023-03-15T08:12:29.053Z,117.05
2023-03-15T08:17:34.467Z,113.50
2023-03-15T08:22:40.421Z,130.43
2023-03-15T08:27:46.600Z,109.68
2023-03-15T08:32:56.100Z,127.68
2023-03-15T08:38:03.875Z,114.47
2023-03-15T08:43:09.802Z,110.88
2023-03-15T08:48:15.704Z,123.65
2023-03-15T08:53:21.225Z,98.32
2023-03-15T08:58:26.467Z,105.00
2023-03-15T09:03:34.071Z,103.57
2023-03-15T09:08:39.844Z,95.00
2023-03-15T09:13:45.848Z,93.80
2023-03-15T09:18:52.154Z,96.28
2023-03-15T09:23:57.592Z,104.18
2023-03-15T09:29:03.256Z,97.80
2023-03-15T09:34:11.784Z,104.40
2023-03-15T09:39:17.632Z,102.72
2023-03-15T09:44:46.631Z,97.32
2023-03-15T09:50:05.411Z,97.65
2023-03-15T09:55:30.134Z,94.28
2023-03-15T10:00:52.278Z,102.80
2023-03-15T10:06:12.832Z,105.75
2023-03-15T10:11:28.966Z,115.25
2023-03-15T10:16:42.236Z,88.38
2023-03-15T10:22:17.723Z,89.78
2023-03-15T10:27:52.145Z,105.25
2023-03-15T10:33:21.681Z,99.47
2023-03-15T10:38:29.111Z,104.00
2023-03-15T10:43:38.631Z,84.82
2023-03-15T10:49:03.146Z,92.40
2023-03-15T10:54:20.345Z,98.95
2023-03-15T10:59:28.577Z,106.35
2023-03-15T11:04:34.522Z,97.00
2023-03-15T11:14:50.664Z,94.10
2023-03-15T11:20:29.645Z,94.43
2023-03-15T11:25:36.035Z,97.20
2023-03-15T11:30:43.780Z,97.55
2023-03-15T11:35:51.199Z,100.18
2023-03-15T11:41:05.298Z,92.47
2023-03-15T11:46:24.880Z,91.60
2023-03-15T11:51:37.392Z,89.35
2023-03-15T11:56:46.727Z,75.85
2023-03-15T12:02:00.155Z,79.43
2023-03-15T12:07:34.950Z,88.00
2023-03-15T12:12:49.692Z,87.50
2023-03-15T12:18:08.935Z,82.93
2023-03-15T12:23:21.507Z,94.82
2023-03-15T12:28:40.256Z,83.38
2023-03-15T12:33:55.989Z,91.13
2023-03-15T12:39:06.074Z,82.15
2023-03-15T12:44:35.219Z,79.60
2023-03-15T12:49:48.405Z,82.53
2023-03-15T12:55:20.438Z,79.97
2023-03-15T13:00:33.713Z,76.57
2023-03-15T13:06:31.799Z,69.65
2023-03-15T13:11:52.660Z,93.18
2023-03-15T13:17:32.018Z,89.22
2023-03-15T13:23:00.161Z,100.05
2023-03-15T13:28:38.461Z,100.05
2023-03-15T13:33:54.972Z,77.57
2023-03-15T13:39:12.271Z,82.13
2023-03-15T13:44:41.143Z,93.20
2023-03-15T13:49:56.196Z,94.35
2023-03-15T13:55:10.962Z,82.25
2023-03-15T14:00:27.718Z,92.15
2023-03-15T14:05:54.621Z,86.32
2023-03-15T14:11:30.618Z,81.90
2023-03-15T14:17:03.159Z,95.30
2023-03-15T14:22:25.062Z,88.28
2023-03-15T14:27:34.399Z,90.32
2023-03-15T14:32:53.780Z,87.38
2023-03-15T14:38:15.027Z,81.82
2023-03-15T14:43:23.233Z,95.05
2023-03-15T14:48:57.796Z,91.63
2023-03-15T14:54:04.151Z,83.90
2023-03-15T14:59:21.612Z,73.70
2023-03-15T15:04:34.853Z,74.63
2023-03-15T15:09:46.102Z,78.95
2023-03-15T15:14:52.756Z,65.85
2023-03-15T15:19:59.503Z,73.00
2023-03-15T15:25:20.059Z,73.38
2023-03-15T15:30:29.619Z,74.10
2023-03-15T15:35:35.758Z,78.38
2023-03-15T15:40:42.274Z,72.68
2023-03-15T15:45:48.739Z,66.40
2023-03-15T15:50:55.376Z,71.20
2023-03-15T15:56:02.277Z,67.80
2023-03-15T16:01:08.798Z,64.13
2023-03-15T16:06:21.029Z,60.95
2023-03-15T16:11:27.334Z,63.80
2023-03-15T16:16:33.234Z,64.90
2023-03-15T16:21:49.342Z,66.20
2023-03-15T16:27:04.446Z,64.22
2023-03-15T16:32:19.304Z,58.58
2023-03-15T16:37:33.216Z,63.35
2023-03-15T16:42:39.248Z,61.63
2023-03-15T16:47:45.632Z,62.10
2023-03-15T16:52:55.346Z,58.03
2023-03-15T16:58:04.570Z,64.03
2023-03-15T17:03:10.399Z,60.15
2023-03-15T17:08:20.438Z,61.38
2023-03-15T17:13:31.719Z,66.65
2023-03-15T17:18:37.453Z,61.72
2023-03-15T17:23:44.329Z,57.97
2023-03-15T17:28:51.179Z,61.05
2023-03-15T17:33:57.399Z,58.60
2023-03-15T17:39:04.973Z,57.20
2023-03-15T17:44:12.582Z,51.58
2023-03-15T17:49:18.888Z,56.38
2023-03-15T17:54:25.872Z,55.90
2023-03-15T17:59:30.894Z,63.03
2023-03-15T18:04:36.301Z,54.25
2023-03-15T18:09:41.835Z,60.37
2023-03-15T18:14:47.664Z,61.50
2023-03-15T18:19:53.216Z,59.08
2023-03-15T18:24:58.276Z,63.60
2023-03-15T18:30:31.901Z,61.13
2023-03-15T18:35:39.331Z,63.72
2023-03-15T18:40:44.735Z,57.72
2023-03-15T18:45:50.163Z,70.23
2023-03-15T18:50:55.269Z,68.10
2023-03-15T18:56:00.341Z,57.65
2023-03-15T19:01:05.730Z,63.45
2023-03-15T19:06:13.513Z,62.63
2023-03-15T19:11:18.653Z,63.28
2023-03-15T19:16:25.283Z,66.70
2023-03-15T19:21:30.437Z,61.38
2023-03-15T19:26:35.816Z,63.05
2023-03-15T19:31:40.936Z,62.40
2023-03-15T19:36:46.349Z,62.83
2023-03-15T19:41:51.806Z,60.67
2023-03-15T19:46:57.244Z,49.60
2023-03-15T19:52:02.576Z,45.20
2023-03-15T19:57:07.882Z,57.20
2023-03-15T20:02:14.392Z,51.33
2023-03-15T20:07:19.885Z,53.00
2023-03-15T20:12:24.985Z,51.80
2023-03-15T20:17:30.019Z,47.22
2023-03-15T20:22:35.056Z,45.95
2023-03-15T20:27:41.259Z,46.30
2023-03-15T20:32:46.781Z,50.08
2023-03-15T20:37:54.250Z,44.97
2023-03-15T20:42:59.630Z,45.45
2023-03-15T20:48:04.909Z,46.43
2023-03-15T20:53:10.139Z,52.07
2023-03-15T20:58:15.529Z,50.40
2023-03-15T21:03:21.127Z,46.43
2023-03-15T21:08:26.328Z,55.70
2023-03-15T21:13:32.133Z,46.37
2023-03-15T21:18:38.434Z,43.73
2023-03-15T21:23:43.570Z,50.38
2023-03-15T21:28:49.440Z,46.45
2023-03-15T21:33:54.607Z,53.83
2023-03-15T21:39:01.077Z,60.07
2023-03-15T21:44:06.856Z,52.25
2023-03-15T21:49:13.384Z,53.53
2023-03-15T21:54:19.272Z,44.03
2023-03-15T21:59:29.051Z,45.38
2023-03-15T22:04:35.239Z,43.53
2023-03-15T22:09:42.523Z,47.53
2023-03-15T22:14:56.864Z,43.55
2023-03-15T22:20:17.623Z,46.55
2023-03-15T22:25:23.080Z,45.55
2023-03-15T22:30:28.608Z,53.90
2023-03-15T22:35:34.413Z,43.67
2023-03-15T22:40:41.719Z,48.10
2023-03-15T22:45:47.406Z,52.72
2023-03-15T22:51:01.465Z,50.45
2023-03-15T22:56:07.671Z,52.88
2023-03-15T23:06:18.557Z,45.40
2023-03-15T23:11:24.228Z,45.40
2023-03-15T23:16:29.924Z,44.15
2023-03-15T23:22:31.253Z,41.58
2023-03-15T23:27:55.217Z,46.40
2023-03-15T23:33:03.981Z,53.85
2023-03-15T23:38:10.131Z,50.13
2023-03-15T23:43:15.439Z,48.35
2023-03-15T23:48:20.563Z,47.23
2023-03-15T23:53:27.128Z,58.95
2023-03-15T23:58:32.541Z,40.50
